Time;durP1;ratioP1;P1;durP2;ratioP2;P2;SDS_P1;SDS_P2;PMS_P1;PMS_P2;Temp;Humidity;BMP_temperature;BMP_pressure;BME280_temperature;BME280_humidity;BME280_pressure;Samples;Min_cycle;Max_cycle;Signal;HPM_P1;HPM_P2
2021/12/08 00:00:35;;;;;;;51.10;23.65;;;2.00;99.90;;;;;;5020679;28;20037;-73
2021/12/08 00:03:03;;;;;;;55.97;23.70;;;2.00;99.90;;;;;;5021752;28;20570;-72
2021/12/08 00:05:30;;;;;;;56.25;23.90;;;2.10;99.90;;;;;;5001544;28;20064;-73
2021/12/08 00:07:55;;;;;;;52.58;23.70;;;2.00;99.90;;;;;;5001963;28;20029;-71
2021/12/08 00:13:05;;;;;;;52.97;23.98;;;2.10;99.90;;;;;;5020477;28;20480;-74
2021/12/08 00:15:36;;;;;;;54.28;24.58;;;2.00;99.90;;;;;;5017721;28;20033;-74
2021/12/08 00:18:08;;;;;;;57.50;24.02;;;2.00;99.90;;;;;;5018050;28;20040;-73
2021/12/08 00:20:35;;;;;;;55.97;23.60;;;2.00;99.90;;;;;;5015591;28;20026;-74
2021/12/08 00:23:03;;;;;;;55.13;23.83;;;2.00;99.90;;;;;;5021894;28;20415;-74
2021/12/08 00:25:29;;;;;;;57.63;23.45;;;2.00;99.90;;;;;;5016226;28;20048;-72
2021/12/08 00:27:56;;;;;;;57.78;24.50;;;2.00;99.90;;;;;;5021912;28;20472;-73
2021/12/08 00:30:21;;;;;;;54.60;24.30;;;2.00;99.90;;;;;;5015362;28;20029;-74
2021/12/08 00:32:48;;;;;;;53.13;22.83;;;2.00;99.90;;;;;;5027261;28;20040;-74
2021/12/08 00:35:14;;;;;;;50.20;21.90;;;2.00;99.90;;;;;;5018356;28;20101;-74
2021/12/08 00:37:40;;;;;;;52.45;22.92;;;2.00;99.90;;;;;;5001280;28;20041;-73
2021/12/08 00:40:09;;;;;;;54.50;23.20;;;2.00;99.90;;;;;;4999590;28;20022;-74
2021/12/08 00:42:36;;;;;;;54.67;24.20;;;2.00;99.90;;;;;;5019289;28;20962;-73
2021/12/08 00:45:03;;;;;;;57.00;23.58;;;2.00;99.90;;;;;;5020633;28;20029;-74
2021/12/08 00:47:29;;;;;;;55.65;23.10;;;2.00;99.90;;;;;;5015977;28;20583;-71
2021/12/08 00:49:54;;;;;;;53.10;23.42;;;2.00;99.90;;;;;;5001345;28;20089;-74
2021/12/08 00:52:20;;;;;;;53.35;24.35;;;2.00;99.90;;;;;;5020140;28;20025;-74
2021/12/08 00:54:46;;;;;;;54.85;23.30;;;2.00;99.90;;;;;;5024165;28;20026;-74
2021/12/08 00:57:12;;;;;;;52.47;23.50;;;2.00;99.90;;;;;;5021828;28;20194;-74
2021/12/08 00:59:38;;;;;;;59.05;24.60;;;2.00;99.90;;;;;;5024468;28;20893;-74
2021/12/08 01:02:05;;;;;;;55.47;23.65;;;2.00;99.90;;;;;;5023499;28;20080;-73
2021/12/08 01:04:35;;;;;;;54.40;22.50;;;2.00;99.90;;;;;;5022967;28;20120;-74
2021/12/08 01:07:02;;;;;;;53.35;23.67;;;2.10;99.90;;;;;;5020727;28;20026;-74
2021/12/08 01:09:28;;;;;;;57.90;23.55;;;2.10;99.90;;;;;;5021547;28;20049;-70
2021/12/08 01:11:57;;;;;;;51.45;21.85;;;2.10;99.90;;;;;;5024720;28;20037;-73
2021/12/08 01:14:23;;;;;;;60.70;24.35;;;2.10;99.90;;;;;;5006163;28;20034;-73
2021/12/08 01:16:51;;;;;;;57.50;23.05;;;2.00;99.90;;;;;;5024890;28;20030;-74
2021/12/08 01:19:17;;;;;;;54.13;23.00;;;2.00;99.90;;;;;;5022858;28;20079;-72
2021/12/08 01:21:43;;;;;;;48.45;21.23;;;2.10;99.90;;;;;;5021298;28;20112;-77
2021/12/08 01:24:10;;;;;;;50.10;23.00;;;2.00;99.90;;;;;;5020716;28;20101;-74
2021/12/08 01:26:35;;;;;;;53.80;24.08;;;2.10;99.90;;;;;;5021879;28;20036;-74
2021/12/08 01:29:02;;;;;;;51.28;23.33;;;2.10;99.90;;;;;;5004481;28;20113;-75
2021/12/08 01:31:29;;;;;;;49.83;22.33;;;2.10;99.90;;;;;;5024337;28;20026;-73
2021/12/08 01:33:55;;;;;;;49.22;22.30;;;2.10;99.90;;;;;;5021429;28;20021;-74
2021/12/08 01:36:21;;;;;;;51.78;22.15;;;2.10;99.90;;;;;;5020607;28;20096;-76
2021/12/08 01:38:47;;;;;;;52.47;22.63;;;2.10;99.90;;;;;;5020545;28;20101;-74
2021/12/08 01:41:13;;;;;;;53.53;23.13;;;2.10;99.90;;;;;;5025580;28;20446;-71
2021/12/08 01:45:56;;;;;;;52.35;22.95;;;2.20;99.90;;;;;;5022533;28;20033;-74
2021/12/08 01:46:25;;;;;;;49.85;23.08;;;2.20;99.90;;;;;;5021191;28;20080;-73
2021/12/08 01:48:50;;;;;;;55.45;22.48;;;2.10;99.90;;;;;;5025335;28;20029;-72
2021/12/08 01:51:18;;;;;;;50.03;22.85;;;2.20;99.90;;;;;;5027767;28;20500;-73
2021/12/08 01:53:49;;;;;;;51.97;21.65;;;2.20;99.90;;;;;;5021896;28;20017;-72
2021/12/08 01:56:15;;;;;;;;;;;2.10;99.90;;;;;;5028539;28;20097;-72
2021/12/08 01:58:41;;;;;;;54.00;21.35;;;2.10;99.90;;;;;;5023905;28;19944;-72
2021/12/08 02:01:14;;;;;;;53.20;23.88;;;2.10;99.90;;;;;;5019406;28;20765;-72
2021/12/08 02:03:42;;;;;;;46.53;20.23;;;2.10;99.90;;;;;;5021350;28;20225;-72
2021/12/08 02:06:09;;;;;;;48.70;20.85;;;2.10;99.90;;;;;;5025694;28;20018;-71
2021/12/08 02:08:36;;;;;;;50.72;21.67;;;2.10;99.90;;;;;;5024502;28;20562;-72
2021/12/08 02:11:03;;;;;;;50.10;22.15;;;2.10;99.90;;;;;;5021898;28;20399;-72
2021/12/08 02:13:37;;;;;;;47.13;21.02;;;2.20;99.90;;;;;;5020300;28;20029;-72
2021/12/08 02:16:08;;;;;;;48.13;21.63;;;2.20;99.90;;;;;;5023680;28;20108;-73
2021/12/08 02:18:35;;;;;;;44.47;20.25;;;2.20;99.90;;;;;;5024781;28;20423;-73
2021/12/08 02:21:04;;;;;;;48.92;20.65;;;2.20;99.90;;;;;;5018231;28;20057;-73
2021/12/08 02:23:31;;;;;;;45.42;21.25;;;2.20;99.90;;;;;;5000826;28;20087;-72
2021/12/08 02:25:57;;;;;;;47.55;20.38;;;2.20;99.90;;;;;;5023847;28;20034;-73
2021/12/08 02:28:24;;;;;;;46.50;20.98;;;2.20;99.90;;;;;;5025961;28;20022;-72
2021/12/08 02:30:56;;;;;;;44.78;20.30;;;2.20;99.90;;;;;;5025596;28;20017;-73
2021/12/08 02:47:16;;;;;;;38.47;18.10;;;2.30;99.90;;;;;;5023317;28;20091;-73
2021/12/08 02:49:43;;;;;;;42.67;18.77;;;2.30;99.90;;;;;;5022323;28;20068;-73
2021/12/08 02:52:11;;;;;;;38.75;18.38;;;2.30;99.90;;;;;;5016941;28;20075;-72
2021/12/08 02:54:45;;;;;;;41.15;17.85;;;2.30;99.90;;;;;;5020997;28;20440;-73
2021/12/08 02:57:13;;;;;;;38.70;18.10;;;2.40;99.90;;;;;;5023272;28;20040;-73
2021/12/08 02:59:40;;;;;;;43.53;17.70;;;2.40;99.90;;;;;;5018760;28;20112;-73
2021/12/08 03:02:07;;;;;;;39.17;17.05;;;2.40;99.90;;;;;;5021663;28;20673;-72
2021/12/08 03:04:33;;;;;;;38.20;18.13;;;2.40;99.90;;;;;;5020962;28;20447;-72
2021/12/08 03:06:59;;;;;;;35.80;16.95;;;2.40;99.90;;;;;;5020592;28;20029;-73
2021/12/08 03:09:25;;;;;;;38.33;16.88;;;2.40;99.90;;;;;;5020882;28;20026;-72
2021/12/08 03:11:54;;;;;;;39.42;16.95;;;2.40;99.90;;;;;;5023519;28;20115;-73
2021/12/08 03:14:20;;;;;;;37.08;17.48;;;2.40;99.90;;;;;;5021517;28;20101;-72
2021/12/08 03:16:49;;;;;;;39.05;17.08;;;2.40;99.90;;;;;;5022311;28;20101;-72
2021/12/08 03:19:16;;;;;;;39.15;18.25;;;2.40;99.90;;;;;;5017327;28;20021;-73
2021/12/08 03:21:42;;;;;;;36.67;17.42;;;2.50;99.90;;;;;;5020722;28;20034;-72
2021/12/08 03:29:47;;;;;;;35.95;16.10;;;2.50;99.90;;;;;;5020260;28;20084;-71
2021/12/08 03:32:14;;;;;;;41.70;16.73;;;2.50;99.90;;;;;;5020528;28;20033;-72
2021/12/08 03:34:50;;;;;;;41.97;16.15;;;2.40;99.90;;;;;;5022544;28;20047;-73
2021/12/08 03:37:17;;;;;;;41.63;18.35;;;2.40;99.90;;;;;;5021294;28;20021;-73
2021/12/08 03:39:43;;;;;;;39.97;17.23;;;2.50;99.90;;;;;;5014690;28;20421;-73
2021/12/08 03:42:10;;;;;;;34.70;17.10;;;2.40;99.90;;;;;;5016769;28;20503;-72
2021/12/08 03:44:36;;;;;;;36.67;16.75;;;2.40;99.90;;;;;;5020911;28;20033;-73
2021/12/08 03:47:13;;;;;;;29.30;15.02;;;2.40;99.90;;;;;;5021453;28;20109;-72
2021/12/08 03:49:39;;;;;;;36.45;15.73;;;2.50;99.90;;;;;;5019247;28;20030;-73
2021/12/08 03:52:05;;;;;;;37.13;15.88;;;2.50;99.90;;;;;;5018715;28;20037;-72
2021/12/08 03:54:31;;;;;;;36.33;15.55;;;2.50;99.90;;;;;;5017397;28;20026;-72
2021/12/08 03:56:57;;;;;;;33.33;15.57;;;2.50;99.90;;;;;;5023035;28;20049;-72
2021/12/08 03:59:23;;;;;;;34.85;16.30;;;2.60;99.90;;;;;;5017466;28;20045;-73
2021/12/08 04:01:49;;;;;;;32.95;16.70;;;2.50;99.90;;;;;;5018725;28;20034;-72
2021/12/08 04:04:15;;;;;;;37.95;16.23;;;2.50;99.90;;;;;;5021410;28;20053;-72
2021/12/08 04:06:47;;;;;;;32.55;16.02;;;2.50;99.90;;;;;;5021400;28;20116;-72
2021/12/08 04:09:38;;;;;;;30.85;15.35;;;2.50;99.90;;;;;;5018591;28;20049;-72
2021/12/08 04:12:03;;;;;;;27.83;13.23;;;2.50;99.90;;;;;;5017852;28;20033;-72
2021/12/08 04:14:33;;;;;;;29.85;13.75;;;2.60;99.90;;;;;;5016656;28;20053;-72
2021/12/08 04:17:04;;;;;;;31.67;13.48;;;2.60;99.90;;;;;;5003763;28;20026;-71
2021/12/08 04:19:31;;;;;;;;;;;2.60;99.90;;;;;;5018206;28;20044;-71
2021/12/08 04:22:00;;;;;;;32.45;14.52;;;2.60;99.90;;;;;;5019755;28;19920;-71
2021/12/08 04:24:26;;;;;;;29.88;14.77;;;2.60;99.90;;;;;;5021282;28;20025;-73
2021/12/08 04:27:03;;;;;;;26.20;13.05;;;2.70;99.90;;;;;;5021045;28;20147;-71
2021/12/08 04:29:33;;;;;;;31.92;14.10;;;2.70;99.90;;;;;;5022480;28;20026;-71
2021/12/08 04:32:00;;;;;;;29.80;14.30;;;2.70;99.90;;;;;;5020993;28;20168;-71
2021/12/08 04:34:36;;;;;;;30.45;13.77;;;2.70;99.90;;;;;;5021724;28;20104;-71
2021/12/08 04:37:10;;;;;;;33.42;14.57;;;2.60;99.90;;;;;;5023293;28;20037;-71
2021/12/08 04:39:51;;;;;;;27.02;14.93;;;2.60;99.90;;;;;;5020265;28;20030;-72
2021/12/08 04:42:24;;;;;;;32.70;14.52;;;2.60;99.90;;;;;;5019567;28;20059;-72
2021/12/08 04:44:57;;;;;;;34.17;15.68;;;2.60;99.90;;;;;;5018315;28;20030;-71
2021/12/08 04:47:34;;;;;;;27.83;14.95;;;2.50;99.90;;;;;;5020160;28;20022;-71
2021/12/08 05:03:23;;;;;;;35.72;15.73;;;2.20;99.90;;;;;;5009725;28;20037;-71
2021/12/08 05:08:42;;;;;;;35.15;17.23;;;2.00;99.90;;;;;;5017043;28;20033;-72
2021/12/08 05:11:31;;;;;;;36.17;16.92;;;2.00;99.90;;;;;;5015493;28;20037;-71
2021/12/08 05:14:08;;;;;;;37.88;18.55;;;1.90;99.90;;;;;;5006831;28;20083;-71
2021/12/08 05:16:36;;;;;;;41.22;18.70;;;1.90;99.90;;;;;;5009574;28;20034;-71
2021/12/08 05:19:08;;;;;;;38.60;18.52;;;1.90;99.90;;;;;;5018603;28;20029;-71
2021/12/08 05:21:40;;;;;;;35.83;18.45;;;1.80;99.90;;;;;;5011635;28;20528;-71
2021/12/08 05:24:35;;;;;;;37.67;18.48;;;1.80;99.90;;;;;;5013851;28;20391;-71
2021/12/08 05:27:08;;;;;;;34.58;17.48;;;1.80;99.90;;;;;;5009707;28;20411;-72
2021/12/08 05:29:59;;;;;;;37.05;18.42;;;1.90;99.90;;;;;;5013761;28;20110;-71
2021/12/08 05:32:24;;;;;;;42.55;18.70;;;1.90;99.90;;;;;;5013912;28;20500;-70
2021/12/08 05:34:51;;;;;;;40.65;19.15;;;1.80;99.90;;;;;;5015969;28;20083;-73
2021/12/08 05:37:21;;;;;;;40.78;20.35;;;1.80;99.90;;;;;;5017402;28;20113;-71
2021/12/08 05:39:47;;;;;;;39.00;19.80;;;1.70;99.90;;;;;;5016289;28;20507;-71
2021/12/08 05:42:17;;;;;;;43.83;20.17;;;1.70;99.90;;;;;;5013652;28;20099;-71
2021/12/08 05:44:43;;;;;;;43.92;20.65;;;1.70;99.90;;;;;;5022001;28;20025;-71
2021/12/08 05:47:19;;;;;;;43.90;19.95;;;1.70;99.90;;;;;;5001055;28;20044;-71
2021/12/08 05:49:45;;;;;;;47.10;21.67;;;1.60;99.90;;;;;;5014189;28;20045;-71
2021/12/08 05:52:11;;;;;;;47.00;21.10;;;1.60;99.90;;;;;;5019656;28;20031;-72
2021/12/08 05:54:43;;;;;;;56.45;21.75;;;1.60;99.90;;;;;;5016686;28;20030;-72
2021/12/08 05:57:17;;;;;;;;;;;1.60;99.90;;;;;;5021674;28;20017;-72
2021/12/08 05:59:44;;;;;;;45.33;21.08;;;1.60;99.90;;;;;;5015029;28;19910;-72
2021/12/08 06:02:15;;;;;;;46.05;21.17;;;1.60;99.90;;;;;;5021247;28;20109;-74
2021/12/08 06:04:41;;;;;;;46.80;21.73;;;1.50;99.90;;;;;;5022403;28;20496;-72
2021/12/08 06:07:09;;;;;;;49.50;21.02;;;1.50;99.90;;;;;;4993672;28;20025;-73
2021/12/08 06:09:36;;;;;;;53.70;21.80;;;1.50;99.90;;;;;;5013167;28;20106;-72
2021/12/08 06:12:03;;;;;;;51.70;23.38;;;1.50;99.90;;;;;;5016016;28;20021;-73
2021/12/08 06:14:32;;;;;;;56.08;23.63;;;1.40;99.90;;;;;;5023936;28;20496;-73
2021/12/08 06:17:06;;;;;;;48.17;21.88;;;1.40;99.90;;;;;;5013974;28;20026;-72
2021/12/08 06:19:33;;;;;;;51.30;22.23;;;1.40;99.90;;;;;;5015082;28;20053;-73
2021/12/08 06:21:59;;;;;;;49.28;22.05;;;1.40;99.90;;;;;;5012842;28;20069;-73
2021/12/08 06:24:25;;;;;;;50.97;23.92;;;1.40;99.90;;;;;;5019954;28;20083;-72
2021/12/08 06:26:52;;;;;;;57.30;24.45;;;1.40;99.90;;;;;;5015112;28;20030;-73
2021/12/08 06:29:19;;;;;;;59.95;25.55;;;1.40;99.90;;;;;;4997086;28;20029;-73
2021/12/08 06:31:52;;;;;;;55.55;24.10;;;1.30;99.90;;;;;;5013377;28;20477;-73
2021/12/08 06:34:20;;;;;;;53.95;22.92;;;1.40;99.90;;;;;;5014161;28;20044;-73
2021/12/08 06:36:53;;;;;;;58.95;25.23;;;1.40;99.90;;;;;;5013583;28;20549;-71
2021/12/08 06:39:38;;;;;;;62.35;24.73;;;1.40;99.90;;;;;;5012302;28;20037;-72
2021/12/08 06:42:10;;;;;;;57.55;26.52;;;1.40;99.90;;;;;;5016631;28;20123;-72
2021/12/08 06:44:41;;;;;;;57.38;25.92;;;1.30;99.90;;;;;;5016626;28;20523;-72
2021/12/08 06:47:11;;;;;;;58.33;25.67;;;1.40;99.90;;;;;;5024600;28;20034;-73
2021/12/08 06:49:39;;;;;;;65.38;26.55;;;1.40;99.90;;;;;;4996222;28;20041;-72
2021/12/08 06:52:10;;;;;;;63.85;26.38;;;1.40;99.90;;;;;;5010275;28;20389;-72
2021/12/08 06:54:40;;;;;;;59.35;25.33;;;1.40;99.90;;;;;;5014527;28;20030;-72
2021/12/08 06:57:20;;;;;;;59.90;25.88;;;1.40;99.90;;;;;;5014030;28;20097;-73
2021/12/08 06:59:57;;;;;;;60.08;25.27;;;1.40;99.90;;;;;;5013957;28;20056;-73
2021/12/08 07:02:52;;;;;;;62.70;25.20;;;1.50;99.90;;;;;;5013401;28;20101;-73
2021/12/08 07:05:29;;;;;;;60.42;25.52;;;1.50;99.90;;;;;;5013398;28;20025;-73
2021/12/08 07:08:03;;;;;;;63.00;25.48;;;1.50;99.90;;;;;;5014989;28;20025;-73
2021/12/08 07:10:35;;;;;;;62.78;26.23;;;1.50;99.90;;;;;;5007837;28;20038;-73
2021/12/08 07:13:06;;;;;;;63.17;27.02;;;1.40;99.90;;;;;;5022826;28;20441;-73
2021/12/08 07:15:38;;;;;;;69.57;26.10;;;1.50;99.90;;;;;;5016217;28;20033;-73
2021/12/08 07:18:13;;;;;;;57.08;26.08;;;1.50;99.90;;;;;;5026801;28;20030;-73
2021/12/08 07:20:46;;;;;;;62.65;26.38;;;1.50;99.90;;;;;;5020038;28;20037;-73
2021/12/08 07:23:24;;;;;;;64.30;26.17;;;1.50;99.90;;;;;;5012720;28;20102;-73
2021/12/08 07:25:55;;;;;;;58.00;25.52;;;1.50;99.90;;;;;;5022446;28;20507;-72
2021/12/08 07:28:23;;;;;;;58.33;24.58;;;1.60;99.90;;;;;;4992376;28;20425;-72
2021/12/08 07:30:53;;;;;;;59.63;25.48;;;1.60;99.90;;;;;;5004279;28;20032;-73
2021/12/08 07:33:19;;;;;;;63.13;25.90;;;1.60;99.90;;;;;;5013016;28;20030;-73
2021/12/08 07:35:52;;;;;;;62.28;25.75;;;1.60;99.90;;;;;;5014452;28;20026;-73
2021/12/08 07:38:21;;;;;;;60.75;24.60;;;1.60;99.90;;;;;;5022532;28;20018;-72
2021/12/08 07:40:54;;;;;;;61.13;25.10;;;1.60;99.90;;;;;;5008385;28;20030;-72
2021/12/08 07:43:24;;;;;;;58.35;24.35;;;1.60;99.90;;;;;;5014687;28;20034;-72
2021/12/08 07:46:10;;;;;;;58.72;24.58;;;1.60;99.90;;;;;;5000054;28;20032;-71
2021/12/08 07:48:48;;;;;;;55.70;24.80;;;1.60;99.90;;;;;;5010113;28;20072;-72
2021/12/08 07:51:26;;;;;;;59.33;25.35;;;1.60;99.90;;;;;;5011406;28;20045;-74
2021/12/08 07:53:52;;;;;;;56.00;24.65;;;1.60;99.90;;;;;;5014144;28;20030;-72
2021/12/08 07:56:22;;;;;;;54.33;24.77;;;1.70;99.90;;;;;;5013949;28;20033;-72
2021/12/08 07:58:53;;;;;;;56.83;24.80;;;1.60;99.90;;;;;;5019420;28;20026;-73
2021/12/08 08:01:24;;;;;;;62.67;27.05;;;1.60;99.90;;;;;;5012571;28;20034;-73
2021/12/08 08:03:52;;;;;;;52.85;22.92;;;1.70;99.90;;;;;;5009796;28;20029;-72
2021/12/08 08:06:24;;;;;;;64.68;26.00;;;1.70;99.90;;;;;;5011389;28;20050;-72
2021/12/08 08:08:51;;;;;;;56.15;25.00;;;1.70;99.90;;;;;;5010844;28;20028;-72
2021/12/08 08:11:30;;;;;;;57.35;25.13;;;1.70;99.90;;;;;;5014483;28;20066;-73
2021/12/08 08:13:57;;;;;;;54.80;23.02;;;1.70;99.90;;;;;;5013849;28;20034;-73
2021/12/08 08:16:29;;;;;;;53.38;23.80;;;1.70;99.90;;;;;;5016330;28;20033;-72
2021/12/08 08:19:05;;;;;;;51.90;23.70;;;1.70;99.90;;;;;;5007731;28;20389;-72
2021/12/08 08:21:34;;;;;;;55.15;22.65;;;1.70;99.90;;;;;;5012149;28;20034;-73
2021/12/08 08:24:00;;;;;;;54.20;23.92;;;1.80;99.90;;;;;;5008938;28;20423;-72
2021/12/08 08:26:27;;;;;;;48.10;23.33;;;1.70;99.90;;;;;;4992105;28;20029;-72
2021/12/08 08:28:53;;;;;;;50.15;22.83;;;1.80;99.90;;;;;;5013237;28;20373;-73
2021/12/08 08:31:31;;;;;;;48.42;22.92;;;1.80;99.90;;;;;;5011064;28;20036;-72
2021/12/08 08:33:57;;;;;;;47.63;23.20;;;1.80;99.90;;;;;;5024782;28;20037;-73
2021/12/08 08:36:28;;;;;;;50.92;22.85;;;1.80;99.90;;;;;;5018075;28;20010;-72
2021/12/08 08:38:57;;;;;;;;;;;1.80;99.90;;;;;;5012468;28;20026;-72
2021/12/08 08:41:46;;;;;;;51.35;21.98;;;1.80;99.90;;;;;;5010849;28;19927;-73
2021/12/08 08:44:25;;;;;;;53.53;24.23;;;1.80;99.90;;;;;;5005882;28;20026;-72
2021/12/08 08:46:52;;;;;;;52.78;24.60;;;1.90;99.90;;;;;;5008997;28;20105;-73
2021/12/08 08:49:26;;;;;;;50.17;22.77;;;1.80;99.90;;;;;;5011879;28;20022;-73
2021/12/08 08:52:00;;;;;;;50.33;24.45;;;1.80;99.90;;;;;;5010791;28;20026;-72
2021/12/08 08:54:30;;;;;;;63.80;26.55;;;1.90;99.90;;;;;;5019620;28;20109;-72
2021/12/08 08:57:01;;;;;;;47.90;23.70;;;2.10;99.90;;;;;;5010420;28;20496;-72
2021/12/08 08:59:32;;;;;;;54.63;22.98;;;2.10;99.90;;;;;;5010995;28;20484;-72
2021/12/08 09:02:02;;;;;;;47.30;23.15;;;2.10;99.90;;;;;;5011556;28;20030;-73
2021/12/08 09:04:38;;;;;;;50.88;23.10;;;2.10;99.90;;;;;;5022820;28;20083;-72
2021/12/08 09:07:08;;;;;;;46.63;22.83;;;2.00;99.90;;;;;;5002054;28;20025;-73
2021/12/08 09:09:41;;;;;;;49.20;22.70;;;2.10;99.90;;;;;;4998773;28;20077;-72
2021/12/08 09:12:06;;;;;;;41.60;21.27;;;2.00;99.90;;;;;;5012737;28;20088;-72
2021/12/08 09:15:00;;;;;;;43.88;22.38;;;2.00;99.90;;;;;;5017145;28;20029;-72
2021/12/08 09:17:30;;;;;;;49.15;21.08;;;2.00;99.90;;;;;;5016560;28;20025;-72
2021/12/08 09:20:13;;;;;;;42.88;20.77;;;2.10;99.90;;;;;;5014132;28;20040;-74
2021/12/08 09:23:14;;;;;;;47.05;22.27;;;2.00;99.90;;;;;;5018409;28;20040;-73
2021/12/08 09:25:51;;;;;;;48.80;22.35;;;2.10;99.90;;;;;;5010356;28;20555;-73
2021/12/08 09:28:29;;;;;;;43.42;21.55;;;2.10;99.90;;;;;;5015834;28;20044;-72
2021/12/08 09:31:04;;;;;;;44.30;22.27;;;2.10;99.90;;;;;;5010261;28;20105;-73
2021/12/08 09:33:38;;;;;;;45.03;22.40;;;2.10;99.90;;;;;;5015987;28;20034;-72
2021/12/08 09:36:08;;;;;;;43.00;22.38;;;2.10;99.90;;;;;;5015138;28;20018;-72
2021/12/08 09:38:39;;;;;;;44.45;21.08;;;2.20;99.90;;;;;;5002754;28;20029;-73
2021/12/08 09:41:13;;;;;;;46.50;22.20;;;2.20;99.90;;;;;;5016937;28;20057;-72
2021/12/08 09:44:10;;;;;;;46.55;22.95;;;2.20;99.90;;;;;;5016952;28;20507;-72
2021/12/08 09:46:42;;;;;;;44.53;22.30;;;2.30;99.90;;;;;;5009259;28;20034;-72
2021/12/08 09:49:11;;;;;;;49.40;21.88;;;2.30;99.90;;;;;;5015698;28;20117;-72
2021/12/08 09:51:37;;;;;;;43.25;20.98;;;2.30;99.90;;;;;;5015600;28;20029;-72
2021/12/08 09:54:04;;;;;;;42.17;21.38;;;2.30;99.90;;;;;;5015404;28;20053;-72
2021/12/08 09:56:33;;;;;;;41.55;20.45;;;2.40;99.90;;;;;;5018246;28;20033;-72
2021/12/08 09:58:59;;;;;;;42.05;20.95;;;2.40;99.90;;;;;;5008383;28;20109;-72
2021/12/08 10:01:26;;;;;;;41.58;19.83;;;2.40;99.90;;;;;;5018339;28;20029;-72
2021/12/08 10:03:53;;;;;;;41.15;21.30;;;2.40;99.90;;;;;;5004111;28;20025;-72
2021/12/08 10:06:21;;;;;;;41.15;21.13;;;2.40;99.90;;;;;;5021231;28;20024;-75
2021/12/08 10:08:49;;;;;;;41.60;19.77;;;2.50;99.90;;;;;;5017146;28;20034;-73
2021/12/08 10:11:17;;;;;;;46.85;21.13;;;2.50;99.90;;;;;;5015675;28;20512;-73
2021/12/08 10:13:45;;;;;;;38.28;18.50;;;2.50;99.90;;;;;;5020900;28;20068;-72
2021/12/08 10:16:12;;;;;;;41.25;20.33;;;2.60;99.90;;;;;;5016452;28;20030;-73
2021/12/08 10:18:39;;;;;;;41.35;20.42;;;2.60;99.90;;;;;;4997816;28;20388;-73
2021/12/08 10:21:05;;;;;;;36.55;18.38;;;2.60;99.90;;;;;;5014104;28;20026;-73
2021/12/08 10:23:36;;;;;;;35.85;18.90;;;2.60;99.90;;;;;;5016246;28;20427;-73
2021/12/08 10:26:20;;;;;;;38.50;18.38;;;2.60;99.90;;;;;;5014737;28;20034;-73
2021/12/08 10:28:50;;;;;;;36.38;18.40;;;2.60;99.90;;;;;;5019334;28;20571;-73
2021/12/08 10:31:30;;;;;;;39.85;19.77;;;2.60;99.90;;;;;;5014290;28;20037;-73
2021/12/08 10:36:47;;;;;;;32.97;16.67;;;2.70;99.90;;;;;;5013151;28;20021;-73
2021/12/08 10:39:28;;;;;;;39.20;19.17;;;2.70;99.90;;;;;;5007934;28;20072;-73
2021/12/08 10:41:58;;;;;;;36.80;18.83;;;2.70;99.90;;;;;;5016660;28;20038;-73
2021/12/08 10:44:31;;;;;;;41.95;17.80;;;2.70;99.90;;;;;;5015025;28;20022;-73
2021/12/08 10:46:58;;;;;;;39.30;18.33;;;2.70;99.90;;;;;;5014178;28;20026;-73
2021/12/08 10:54:42;;;;;;;34.88;17.80;;;2.80;99.90;;;;;;5012260;28;20026;-73
2021/12/08 10:57:30;;;;;;;38.70;18.48;;;2.80;99.90;;;;;;5011532;28;20041;-73
2021/12/08 11:00:18;;;;;;;39.55;18.52;;;2.80;99.90;;;;;;5013895;28;20037;-73
2021/12/08 11:02:46;;;;;;;39.80;19.67;;;2.80;99.90;;;;;;5016069;28;20030;-73
2021/12/08 11:05:24;;;;;;;35.15;19.10;;;2.80;99.90;;;;;;5015505;28;20416;-73
2021/12/08 11:08:00;;;;;;;36.38;18.17;;;2.90;99.90;;;;;;5016939;28;20034;-73
2021/12/08 11:10:26;;;;;;;36.38;17.92;;;2.90;99.90;;;;;;5021361;28;20034;-73
2021/12/08 11:12:54;;;;;;;38.90;18.30;;;2.90;99.90;;;;;;4992812;28;20029;-73
2021/12/08 11:15:22;;;;;;;38.85;18.52;;;3.00;99.90;;;;;;5014281;28;20961;-73
2021/12/08 11:18:05;;;;;;;37.05;18.58;;;2.90;99.90;;;;;;5003505;28;20025;-73
2021/12/08 11:20:32;;;;;;;35.58;17.15;;;3.00;99.90;;;;;;5022532;28;20099;-74
2021/12/08 11:23:04;;;;;;;37.72;17.63;;;3.00;99.90;;;;;;5024909;28;20037;-73
2021/12/08 11:25:39;;;;;;;32.13;16.52;;;2.90;99.90;;;;;;5027381;28;20041;-73
2021/12/08 11:28:25;;;;;;;36.15;17.15;;;2.90;99.90;;;;;;5025194;28;20026;-73
2021/12/08 11:30:52;;;;;;;37.22;18.75;;;3.00;99.90;;;;;;5016255;28;20431;-74
2021/12/08 11:33:23;;;;;;;39.65;17.98;;;3.00;99.90;;;;;;5004008;28;20096;-73
2021/12/08 11:36:14;;;;;;;28.65;16.40;;;2.90;99.90;;;;;;5013916;28;20021;-74
2021/12/08 11:38:41;;;;;;;32.20;17.05;;;3.00;99.90;;;;;;5018137;28;20127;-73
2021/12/08 11:41:24;;;;;;;33.83;17.25;;;3.00;99.90;;;;;;5014916;28;20025;-73
2021/12/08 11:43:54;;;;;;;31.95;17.48;;;3.00;99.90;;;;;;5013120;28;20022;-74
2021/12/08 11:46:21;;;;;;;35.88;17.95;;;3.00;99.90;;;;;;5016108;28;20025;-73
2021/12/08 11:49:09;;;;;;;36.97;18.30;;;3.00;99.90;;;;;;5019358;28;20088;-74
2021/12/08 11:51:44;;;;;;;36.80;17.45;;;3.00;99.90;;;;;;5021189;28;20029;-73
2021/12/08 11:54:29;;;;;;;32.40;17.00;;;3.10;99.90;;;;;;5013627;28;20029;-73
2021/12/08 11:57:10;;;;;;;40.05;18.17;;;3.00;99.90;;;;;;5018301;28;20029;-73
2021/12/08 11:59:59;;;;;;;33.88;18.35;;;3.00;99.90;;;;;;5011863;28;20030;-73
2021/12/08 12:02:32;;;;;;;37.20;18.35;;;3.10;99.90;;;;;;5015542;28;20037;-73
2021/12/08 12:04:59;;;;;;;38.50;18.52;;;3.10;99.90;;;;;;5019548;28;20026;-73
2021/12/08 12:07:24;;;;;;;34.28;18.02;;;3.20;99.90;;;;;;5020481;28;20041;-73
2021/12/08 12:09:51;;;;;;;32.10;16.98;;;3.20;99.90;;;;;;5013115;28;20612;-74
2021/12/08 12:12:18;;;;;;;36.70;18.00;;;3.20;99.90;;;;;;5017724;28;20043;-73
2021/12/08 12:14:44;;;;;;;32.00;16.67;;;3.20;99.90;;;;;;5020000;28;20096;-73
2021/12/08 12:17:10;;;;;;;29.52;15.93;;;3.20;99.90;;;;;;5013473;28;20037;-73
2021/12/08 12:20:05;;;;;;;31.02;17.15;;;3.30;99.90;;;;;;5017485;28;20080;-73
2021/12/08 12:22:44;;;;;;;31.17;16.38;;;3.30;99.90;;;;;;4984652;28;20042;-73
2021/12/08 12:25:19;;;;;;;31.10;16.85;;;3.30;99.90;;;;;;5014945;28;20040;-73
2021/12/08 12:27:58;;;;;;;32.92;16.52;;;3.30;99.90;;;;;;5014481;28;20026;-73
2021/12/08 12:30:57;;;;;;;28.30;16.25;;;3.40;99.90;;;;;;5015433;28;20033;-73
2021/12/08 12:33:23;;;;;;;30.02;15.95;;;3.40;99.90;;;;;;5016114;28;20029;-73
2021/12/08 12:35:53;;;;;;;32.67;16.70;;;3.40;99.90;;;;;;4997837;28;20022;-73
2021/12/08 12:38:36;;;;;;;33.90;16.90;;;3.40;99.90;;;;;;5018569;28;20037;-73
2021/12/08 12:41:03;;;;;;;34.13;16.85;;;3.40;99.90;;;;;;5018309;28;20032;-73
2021/12/08 12:43:34;;;;;;;33.60;16.63;;;3.40;99.90;;;;;;5003490;28;20030;-73
2021/12/08 12:46:16;;;;;;;32.93;16.13;;;3.30;99.90;;;;;;5017972;28;20492;-74
2021/12/08 12:48:48;;;;;;;30.88;15.70;;;3.30;99.90;;;;;;5024659;28;20521;-73
2021/12/08 12:51:14;;;;;;;32.22;16.40;;;3.30;99.90;;;;;;5025291;28;20139;-73
2021/12/08 12:53:49;;;;;;;32.85;17.38;;;3.30;99.90;;;;;;5024623;28;20106;-73
2021/12/08 12:56:17;;;;;;;36.03;17.67;;;3.30;99.90;;;;;;5029048;28;20461;-73
2021/12/08 12:58:51;;;;;;;36.70;18.65;;;3.30;99.90;;;;;;5027026;28;20033;-72
2021/12/08 13:01:26;;;;;;;32.03;16.58;;;3.30;99.90;;;;;;5021701;28;20522;-73
2021/12/08 13:03:58;;;;;;;38.25;19.50;;;3.30;99.90;;;;;;5019847;28;20060;-73
2021/12/08 13:06:42;;;;;;;31.85;16.88;;;3.30;99.90;;;;;;5024644;28;20081;-73
2021/12/08 13:09:29;;;;;;;37.45;18.17;;;3.20;99.90;;;;;;5021200;28;20045;-74
2021/12/08 13:12:25;;;;;;;80.25;40.97;;;3.20;99.90;;;;;;4990300;28;20128;-74
2021/12/08 13:15:13;;;;;;;129.18;58.03;;;3.30;99.90;;;;;;5022176;28;20030;-74
2021/12/08 13:18:06;;;;;;;44.63;22.00;;;3.30;99.90;;;;;;5020033;28;20513;-74
2021/12/08 13:20:46;;;;;;;34.78;18.58;;;3.40;99.90;;;;;;5022280;28;20071;-74
2021/12/08 13:23:19;;;;;;;39.30;18.77;;;3.40;99.90;;;;;;5020114;28;20484;-73
2021/12/08 13:25:54;;;;;;;33.38;17.90;;;3.40;99.90;;;;;;5019568;28;20034;-74
2021/12/08 13:28:28;;;;;;;35.85;17.75;;;3.40;99.90;;;;;;5004407;28;20041;-74
2021/12/08 13:31:07;;;;;;;40.30;17.90;;;3.30;99.90;;;;;;5019547;28;20030;-74
2021/12/08 13:33:35;;;;;;;36.65;17.55;;;3.30;99.90;;;;;;5020334;28;20515;-74
2021/12/08 13:36:29;;;;;;;34.33;18.25;;;3.40;99.90;;;;;;5002787;28;20037;-74
2021/12/08 13:38:58;;;;;;;35.65;18.15;;;3.30;99.90;;;;;;5014776;28;20387;-73
2021/12/08 13:41:26;;;;;;;35.58;18.17;;;3.20;99.90;;;;;;5028702;28;20061;-74
2021/12/08 13:43:52;;;;;;;37.25;17.33;;;3.30;99.90;;;;;;5000308;28;20088;-75
2021/12/08 13:46:36;;;;;;;38.47;18.98;;;3.30;99.90;;;;;;5025654;22;20136;-90